createdAt,value
2019-01-21T00:00:57.716Z,99.90
2019-01-21T00:03:26.764Z,99.90
2019-01-21T00:05:55.348Z,99.90
2019-01-21T00:08:23.971Z,99.90
2019-01-21T00:10:52.504Z,99.90
2019-01-21T00:13:20.967Z,99.90
2019-01-21T00:20:46.438Z,99.90
2019-01-21T00:23:14.891Z,99.90
2019-01-21T00:25:43.579Z,99.90
2019-01-21T00:28:12.126Z,99.90
2019-01-21T00:30:40.563Z,99.90
2019-01-21T00:35:37.526Z,99.90
2019-01-21T00:38:06.107Z,99.90
2019-01-21T00:43:03.150Z,99.90
2019-01-21T00:45:31.695Z,99.90
2019-01-21T00:48:00.301Z,99.90
2019-01-21T00:52:57.178Z,99.90
2019-01-21T00:57:54.209Z,99.90
2019-01-21T01:00:24.765Z,99.90
2019-01-21T01:02:53.483Z,99.90
2019-01-21T01:05:22.691Z,99.90
2019-01-21T01:07:51.337Z,99.90
2019-01-21T01:10:20.037Z,99.90
2019-01-21T01:12:48.697Z,99.90
2019-01-21T01:17:45.687Z,99.90
2019-01-21T01:25:12.843Z,99.90
2019-01-21T01:30:11.708Z,99.90
2019-01-21T01:32:40.284Z,99.90
2019-01-21T01:35:10.157Z,99.90
2019-01-21T01:37:38.767Z,99.90
2019-01-21T01:40:10.190Z,99.90
2019-01-21T01:42:42.166Z,99.90
2019-01-21T01:45:13.191Z,99.60
2019-01-21T01:47:44.882Z,99.90
2019-01-21T01:50:13.328Z,99.90
2019-01-21T01:52:42.049Z,99.80
2019-01-21T01:57:39.106Z,99.70
2019-01-21T02:00:11.049Z,99.60
2019-01-21T02:02:39.850Z,99.60
2019-01-21T02:05:08.758Z,99.70
2019-01-21T02:07:37.466Z,99.80
2019-01-21T02:10:07.302Z,99.60
2019-01-21T02:12:36.186Z,99.50
2019-01-21T02:15:07.021Z,99.40
2019-01-21T02:17:35.666Z,99.20
2019-01-21T02:22:35.399Z,99.20
2019-01-21T02:28:09.422Z,99.20
2019-01-21T02:31:34.385Z,99.20
2019-01-21T02:34:12.814Z,99.20
2019-01-21T02:37:32.185Z,99.30
2019-01-21T02:41:00.271Z,99.50
2019-01-21T02:46:56.885Z,99.40
2019-01-21T02:50:15.890Z,99.30
2019-01-21T02:53:11.254Z,99.30
2019-01-21T02:56:01.124Z,98.90
2019-01-21T03:04:29.005Z,99.00
2019-01-21T03:07:15.552Z,98.70
2019-01-21T03:10:31.155Z,98.80
2019-01-21T03:13:24.520Z,98.60
2019-01-21T03:16:32.280Z,99.00
2019-01-21T03:19:33.308Z,99.20
2019-01-21T03:22:42.293Z,99.30
2019-01-21T03:25:43.309Z,99.20
2019-01-21T03:28:54.954Z,98.50
2019-01-21T03:31:53.198Z,98.70
2019-01-21T03:34:58.556Z,99.30
2019-01-21T03:38:23.942Z,99.20
2019-01-21T03:41:52.298Z,99.10
2019-01-21T03:44:51.262Z,99.60
2019-01-21T03:47:46.657Z,99.90
2019-01-21T03:51:11.794Z,99.90
2019-01-21T03:54:05.792Z,99.90
2019-01-21T03:59:43.373Z,99.90
2019-01-21T04:02:38.327Z,99.90
2019-01-21T04:05:29.843Z,99.90
2019-01-21T04:11:23.490Z,99.90
2019-01-21T04:17:27.449Z,99.90
2019-01-21T04:20:37.468Z,99.90
2019-01-21T04:23:26.265Z,99.90
2019-01-21T04:28:57.498Z,99.90
2019-01-21T04:31:53.785Z,99.90
2019-01-21T04:34:58.898Z,99.90
2019-01-21T04:38:17.247Z,99.90
2019-01-21T04:41:18.066Z,99.90
2019-01-21T04:43:59.353Z,99.90
2019-01-21T04:47:18.392Z,99.90
2019-01-21T04:50:20.647Z,99.90
2019-01-21T04:59:21.608Z,99.90
2019-01-21T05:02:27.188Z,99.90
2019-01-21T05:10:39.990Z,99.90
2019-01-21T05:13:35.615Z,99.90
2019-01-21T05:19:30.151Z,99.90
2019-01-21T05:25:33.168Z,99.90
2019-01-21T05:28:27.232Z,99.90
2019-01-21T05:34:10.651Z,99.90
2019-01-21T05:40:10.406Z,99.90
2019-01-21T05:43:22.118Z,99.90
2019-01-21T05:46:46.415Z,99.90
2019-01-21T05:50:04.795Z,99.90
2019-01-21T06:02:04.964Z,99.90
2019-01-21T06:07:54.433Z,99.90
2019-01-21T06:10:35.495Z,99.90
2019-01-21T06:13:44.676Z,99.90
2019-01-21T06:16:35.393Z,99.80
2019-01-21T06:19:54.543Z,99.90
2019-01-21T06:25:54.072Z,99.90
2019-01-21T06:28:58.863Z,99.90
2019-01-21T06:31:53.679Z,99.90
2019-01-21T06:34:42.075Z,99.90
2019-01-21T06:37:32.811Z,99.90
2019-01-21T06:40:48.682Z,99.90
2019-01-21T06:43:48.350Z,99.90
2019-01-21T06:47:04.646Z,99.90
2019-01-21T06:50:09.784Z,99.90
2019-01-21T06:56:17.904Z,99.90
2019-01-21T07:02:15.395Z,99.90
2019-01-21T07:05:05.833Z,99.90
2019-01-21T07:19:03.594Z,99.40
2019-01-21T07:24:43.047Z,99.60
2019-01-21T07:28:05.218Z,99.20
2019-01-21T07:31:28.372Z,99.40
2019-01-21T07:34:26.274Z,99.30
2019-01-21T07:37:21.499Z,98.60
2019-01-21T07:40:12.793Z,99.20
2019-01-21T07:43:16.752Z,98.80
2019-01-21T07:45:57.743Z,98.90
2019-01-21T07:49:02.502Z,99.00
2019-01-21T07:52:09.002Z,98.80
2019-01-21T07:57:52.661Z,98.70
2019-01-21T08:00:53.964Z,98.60
2019-01-21T08:04:07.335Z,98.40
2019-01-21T08:07:13.832Z,98.40
2019-01-21T08:10:28.918Z,98.50
2019-01-21T08:13:44.782Z,98.50
2019-01-21T08:16:45.129Z,98.60
2019-01-21T08:20:03.467Z,98.70
2019-01-21T08:23:34.727Z,98.60
2019-01-21T08:26:31.408Z,98.40
2019-01-21T08:29:44.660Z,98.10
2019-01-21T08:32:59.798Z,98.20
2019-01-21T08:35:54.767Z,98.20
2019-01-21T08:41:37.048Z,97.90
2019-01-21T08:45:05.186Z,97.70
2019-01-21T08:48:00.146Z,97.90
2019-01-21T08:50:50.674Z,97.60
2019-01-21T08:53:52.013Z,97.60
2019-01-21T08:56:56.663Z,97.30
2019-01-21T09:02:47.508Z,97.20
2019-01-21T09:05:46.653Z,96.90
2019-01-21T09:08:47.182Z,97.10
2019-01-21T09:11:35.452Z,97.10
2019-01-21T09:14:54.844Z,97.20
2019-01-21T09:17:36.699Z,97.20
2019-01-21T09:20:48.576Z,97.10
2019-01-21T09:23:44.092Z,97.10
2019-01-21T09:26:40.460Z,97.10
2019-01-21T09:29:37.839Z,97.30
2019-01-21T09:32:57.657Z,96.90
2019-01-21T09:36:16.462Z,96.90
2019-01-21T09:39:25.987Z,96.70
2019-01-21T09:42:27.747Z,96.70
2019-01-21T09:45:20.887Z,96.60
2019-01-21T09:50:17.602Z,96.50
2019-01-21T09:52:46.623Z,96.30
2019-01-21T09:57:44.904Z,96.50
2019-01-21T10:00:17.255Z,96.40
2019-01-21T10:02:49.502Z,96.70
2019-01-21T10:05:18.832Z,96.60
2019-01-21T10:08:06.871Z,96.60
2019-01-21T10:10:50.713Z,96.90
2019-01-21T10:13:55.492Z,96.80
2019-01-21T10:17:14.970Z,96.90
2019-01-21T10:20:16.413Z,96.80
2019-01-21T10:25:51.060Z,96.50
2019-01-21T10:28:41.658Z,96.60
2019-01-21T10:31:41.202Z,96.50
2019-01-21T10:34:41.814Z,96.30
2019-01-21T10:37:49.113Z,96.30
2019-01-21T10:40:51.445Z,95.90
2019-01-21T10:46:17.182Z,95.60
2019-01-21T10:49:14.282Z,95.50
2019-01-21T10:52:10.130Z,95.40
2019-01-21T10:54:56.199Z,95.60
2019-01-21T10:58:00.352Z,95.70
2019-01-21T11:00:39.949Z,95.00
2019-01-21T11:03:22.087Z,94.90
2019-01-21T11:06:21.974Z,95.20
2019-01-21T11:09:26.962Z,94.70
2019-01-21T11:12:42.155Z,95.40
2019-01-21T11:15:40.778Z,95.30
2019-01-21T11:18:32.816Z,95.30
2019-01-21T11:21:19.334Z,95.20
2019-01-21T11:24:35.626Z,95.20
2019-01-21T11:27:38.913Z,95.10
2019-01-21T11:30:43.595Z,95.30
2019-01-21T11:34:03.894Z,95.30
2019-01-21T11:36:50.854Z,95.20
2019-01-21T11:40:05.773Z,95.30
2019-01-21T11:43:10.131Z,95.30
2019-01-21T11:46:15.745Z,95.20
2019-01-21T11:49:01.215Z,94.90
2019-01-21T11:52:09.884Z,95.60
2019-01-21T11:54:56.099Z,95.20
2019-01-21T11:57:56.142Z,95.30
2019-01-21T12:00:40.328Z,95.50
2019-01-21T12:03:23.635Z,95.70
2019-01-21T12:06:03.966Z,95.60
2019-01-21T12:09:00.261Z,95.60
2019-01-21T12:14:55.715Z,95.80
2019-01-21T12:18:04.822Z,95.70
2019-01-21T12:21:32.959Z,95.60
2019-01-21T12:24:35.586Z,95.40
2019-01-21T12:27:19.847Z,95.30
2019-01-21T12:30:42.097Z,95.30
2019-01-21T12:33:44.705Z,95.50
2019-01-21T12:36:21.623Z,95.60
2019-01-21T12:39:31.178Z,95.80
2019-01-21T12:42:15.591Z,96.00
2019-01-21T12:45:35.047Z,95.80
2019-01-21T12:48:31.014Z,95.40
2019-01-21T12:51:41.317Z,95.60
2019-01-21T12:54:56.761Z,95.60
2019-01-21T12:58:18.194Z,95.40
2019-01-21T13:01:26.950Z,95.70
2019-01-21T13:04:32.863Z,95.70
2019-01-21T13:07:18.630Z,95.50
2019-01-21T13:10:27.794Z,95.70
2019-01-21T13:13:43.553Z,95.70
2019-01-21T13:16:49.364Z,95.40
2019-01-21T13:19:59.207Z,95.70
2019-01-21T13:23:02.473Z,95.90
2019-01-21T13:26:14.007Z,95.70
2019-01-21T13:29:15.662Z,95.70
2019-01-21T13:32:28.552Z,95.90
2019-01-21T13:35:34.199Z,95.70
2019-01-21T13:38:17.537Z,95.50
2019-01-21T13:41:28.923Z,95.50
2019-01-21T13:44:30.362Z,95.30
2019-01-21T13:47:58.361Z,95.50
2019-01-21T13:51:06.729Z,95.50
2019-01-21T13:54:29.111Z,95.70
2019-01-21T13:57:35.168Z,95.80
2019-01-21T14:00:42.249Z,95.80
2019-01-21T14:03:42.989Z,95.80
2019-01-21T14:09:47.338Z,96.00
2019-01-21T14:13:12.658Z,95.90
2019-01-21T14:16:11.922Z,95.80
2019-01-21T14:18:52.983Z,95.60
2019-01-21T14:21:37.092Z,95.60
2019-01-21T14:24:34.025Z,95.70
2019-01-21T14:27:50.326Z,95.80
2019-01-21T14:30:55.998Z,96.00
2019-01-21T14:33:55.520Z,95.60
2019-01-21T14:37:22.081Z,95.50
2019-01-21T14:40:00.570Z,95.60
2019-01-21T14:42:44.554Z,95.50
2019-01-21T14:45:23.986Z,95.80
2019-01-21T14:48:26.756Z,95.80
2019-01-21T14:51:36.782Z,95.70
2019-01-21T14:54:16.657Z,95.80
2019-01-21T14:57:17.270Z,95.80
2019-01-21T15:00:42.668Z,95.90
2019-01-21T15:03:58.876Z,95.80
2019-01-21T15:06:58.305Z,95.50
2019-01-21T15:10:09.646Z,95.60
2019-01-21T15:13:15.009Z,95.80
2019-01-21T15:16:28.105Z,95.70
2019-01-21T15:19:19.434Z,95.80
2019-01-21T15:22:50.857Z,95.80
2019-01-21T15:25:49.130Z,95.80
2019-01-21T15:29:01.435Z,96.00
2019-01-21T15:32:18.520Z,96.00
2019-01-21T15:35:44.906Z,96.40
2019-01-21T15:38:58.949Z,96.20
2019-01-21T15:42:08.245Z,96.30
2019-01-21T15:45:01.752Z,96.30
2019-01-21T15:48:23.652Z,96.00
2019-01-21T15:50:57.571Z,96.50
2019-01-21T15:54:10.726Z,96.10
2019-01-21T15:57:26.202Z,96.40
2019-01-21T16:00:48.284Z,96.10
2019-01-21T16:03:46.455Z,96.10
2019-01-21T16:06:40.349Z,96.00
2019-01-21T16:09:55.350Z,96.20
2019-01-21T16:12:59.839Z,96.10
2019-01-21T16:16:15.569Z,96.30
2019-01-21T16:19:03.903Z,96.40
2019-01-21T16:22:22.486Z,96.30
2019-01-21T16:25:03.006Z,96.30
2019-01-21T16:27:57.026Z,96.00
2019-01-21T16:30:34.851Z,96.20
2019-01-21T16:34:02.959Z,96.20
2019-01-21T16:36:45.877Z,96.10
2019-01-21T16:40:00.546Z,96.20
2019-01-21T16:42:27.776Z,96.20
2019-01-21T16:44:56.660Z,96.20
2019-01-21T16:47:26.546Z,96.00
2019-01-21T16:49:55.948Z,96.30
2019-01-21T16:52:25.041Z,96.20
2019-01-21T16:54:53.445Z,96.30
2019-01-21T16:57:23.060Z,96.10
2019-01-21T16:59:51.649Z,96.20
2019-01-21T17:04:52.942Z,96.20
2019-01-21T17:07:21.653Z,96.30
2019-01-21T17:09:50.306Z,96.40
2019-01-21T17:12:19.077Z,96.40
2019-01-21T17:14:47.670Z,96.50
2019-01-21T17:17:16.226Z,96.50
2019-01-21T17:19:45.164Z,96.50
2019-01-21T17:22:13.855Z,96.60
2019-01-21T17:24:42.462Z,96.80
2019-01-21T17:27:12.147Z,96.60
2019-01-21T17:29:40.837Z,96.60
2019-01-21T17:32:28.877Z,96.80
2019-01-21T17:37:43.662Z,96.70
2019-01-21T17:40:15.350Z,96.60
2019-01-21T17:42:46.050Z,97.00
2019-01-21T17:45:17.069Z,96.90
2019-01-21T17:47:46.794Z,97.00
2019-01-21T17:50:16.532Z,97.00
2019-01-21T17:55:14.823Z,96.90
2019-01-21T17:57:43.436Z,97.00
2019-01-21T18:00:16.144Z,96.80
2019-01-21T18:02:44.962Z,97.00
2019-01-21T18:05:13.878Z,97.10
2019-01-21T18:07:42.349Z,97.10
2019-01-21T18:10:13.369Z,97.00
2019-01-21T18:12:42.160Z,96.90
2019-01-21T18:17:39.972Z,97.10
2019-01-21T18:20:20.345Z,96.90
2019-01-21T18:22:52.050Z,97.00
2019-01-21T18:25:20.628Z,97.00
2019-01-21T18:27:49.285Z,96.90
2019-01-21T18:32:48.365Z,97.00
2019-01-21T18:35:17.062Z,96.90
2019-01-21T18:37:45.923Z,96.70
2019-01-21T18:40:16.372Z,96.80
2019-01-21T18:42:45.102Z,96.80
2019-01-21T18:45:22.045Z,96.70
2019-01-21T18:47:52.164Z,96.50
2019-01-21T18:52:51.410Z,97.10
2019-01-21T18:55:20.122Z,97.00
2019-01-21T18:57:49.177Z,96.80
2019-01-21T19:00:23.079Z,96.70
2019-01-21T19:02:51.746Z,96.70
2019-01-21T19:05:20.708Z,96.80
2019-01-21T19:07:49.609Z,96.70
2019-01-21T19:10:18.348Z,96.80
2019-01-21T19:12:46.919Z,97.00
2019-01-21T19:17:48.113Z,96.90
2019-01-21T19:20:16.815Z,96.90
2019-01-21T19:22:45.605Z,97.00
2019-01-21T19:25:14.342Z,96.80
2019-01-21T19:27:43.069Z,97.20
2019-01-21T19:30:17.509Z,97.00
2019-01-21T19:32:46.215Z,97.00
2019-01-21T19:35:16.461Z,96.90
2019-01-21T19:37:45.298Z,96.80
2019-01-21T19:40:17.644Z,97.00
2019-01-21T19:42:46.543Z,97.00
2019-01-21T19:47:43.881Z,97.20
2019-01-21T19:52:41.519Z,97.00
2019-01-21T19:55:13.817Z,97.10
2019-01-21T19:57:42.655Z,97.30
2019-01-21T20:00:15.856Z,97.10
2019-01-21T20:02:44.590Z,97.30
2019-01-21T20:05:13.591Z,97.10
2019-01-21T20:07:42.088Z,97.30
2019-01-21T20:10:13.128Z,97.30
2019-01-21T20:12:41.670Z,97.00
2019-01-21T20:15:11.279Z,96.90
2019-01-21T20:17:39.809Z,97.10
2019-01-21T20:20:12.357Z,97.10
2019-01-21T20:22:41.940Z,97.20
2019-01-21T20:25:11.273Z,97.30
2019-01-21T20:27:40.926Z,97.30
2019-01-21T20:32:39.306Z,97.20
2019-01-21T20:35:08.162Z,97.20
2019-01-21T20:37:36.856Z,97.10
2019-01-21T20:42:34.558Z,97.20
2019-01-21T20:45:04.746Z,97.00
2019-01-21T20:50:01.766Z,97.00
2019-01-21T20:52:31.424Z,97.20
2019-01-21T20:54:59.861Z,97.20
2019-01-21T20:57:28.682Z,97.00
2019-01-21T20:59:57.283Z,97.00
2019-01-21T21:02:25.865Z,97.00
2019-01-21T21:04:54.298Z,97.00
2019-01-21T21:09:51.080Z,96.90
2019-01-21T21:12:25.690Z,96.90
2019-01-21T21:14:49.810Z,96.90
2019-01-21T21:17:18.365Z,96.50
2019-01-21T21:19:46.668Z,97.00
2019-01-21T21:27:14.689Z,97.20
2019-01-21T21:29:43.592Z,97.20
2019-01-21T21:32:11.935Z,97.10
2019-01-21T21:34:41.649Z,97.20
2019-01-21T21:37:10.186Z,97.40
2019-01-21T21:39:39.922Z,97.60
2019-01-21T21:44:38.010Z,97.50
2019-01-21T21:49:35.838Z,97.30
2019-01-21T21:52:04.471Z,97.60
2019-01-21T21:59:30.338Z,97.70
2019-01-21T22:01:58.840Z,97.70
2019-01-21T22:06:56.775Z,97.70
2019-01-21T22:14:22.166Z,97.90
2019-01-21T22:16:51.684Z,98.00
2019-01-21T22:21:48.404Z,97.90
2019-01-21T22:24:16.942Z,97.90
2019-01-21T22:26:45.549Z,97.50
2019-01-21T22:29:14.145Z,98.10
2019-01-21T22:31:42.833Z,98.10
2019-01-21T22:34:11.503Z,97.90
2019-01-21T22:39:08.992Z,97.90
2019-01-21T22:41:38.491Z,97.90
2019-01-21T22:44:07.468Z,98.20
2019-01-21T22:46:37.511Z,97.80
2019-01-21T22:49:06.421Z,98.00
2019-01-21T22:56:32.018Z,98.10
2019-01-21T23:01:31.820Z,98.00
2019-01-21T23:04:02.064Z,98.00
2019-01-21T23:18:53.735Z,97.90
2019-01-21T23:23:50.648Z,97.80
2019-01-21T23:28:48.083Z,97.30
2019-01-21T23:31:16.623Z,97.40
2019-01-21T23:36:13.746Z,97.50
2019-01-21T23:41:11.920Z,97.60
2019-01-21T23:46:10.059Z,97.70
2019-01-21T23:48:38.483Z,97.70
2019-01-21T23:51:07.226Z,97.30
2019-01-21T23:53:35.873Z,97.40
2019-01-21T23:56:05.036Z,97.50
2019-01-21T23:58:33.410Z,97.70
